Time;durP1;ratioP1;P1;durP2;ratioP2;P2;SDS_P1;SDS_P2;PMS_P1;PMS_P2;Temp;Humidity;BMP_temperature;BMP_pressure;BME280_temperature;BME280_humidity;BME280_pressure;Samples;Min_cycle;Max_cycle;Signal;HPM_P1;HPM_P2
2023/05/03 00:00:07;;;;;;;2.50;2.30;;;;;;;;;;5013835;28;20226;-89
2023/05/03 00:02:37;;;;;;;2.30;2.10;;;;;;;;;;5014127;28;20210;-89
2023/05/03 00:05:08;;;;;;;3.47;2.70;;;;;;;;;;5013956;28;20740;-89
2023/05/03 00:07:36;;;;;;;2.50;2.08;;;;;;;;;;5014058;28;20557;-89
2023/05/03 00:10:03;;;;;;;2.20;2.00;;;;;;;;;;5013718;28;20291;-88
2023/05/03 00:12:31;;;;;;;4.63;2.55;;;;;;;;;;5013766;28;20624;-88
2023/05/03 00:14:59;;;;;;;3.67;2.60;;;;;;;;;;5013493;28;20276;-89
2023/05/03 00:17:26;;;;;;;2.45;2.13;;;;;;;;;;5013486;28;20258;-89
2023/05/03 00:19:55;;;;;;;6.18;2.85;;;;;;;;;;5013724;28;20222;-89
2023/05/03 00:22:24;;;;;;;2.47;2.25;;;;;;;;;;5013791;28;20199;-89
2023/05/03 00:24:51;;;;;;;3.22;2.38;;;;;;;;;;5013256;28;20301;-89
2023/05/03 00:27:19;;;;;;;2.78;2.58;;;;;;;;;;5013463;28;20289;-89
2023/05/03 00:29:47;;;;;;;3.75;2.85;;;;;;;;;;5013774;28;20750;-89
2023/05/03 00:32:14;;;;;;;3.40;2.50;;;;;;;;;;5013303;28;20291;-89
2023/05/03 00:34:42;;;;;;;2.72;2.45;;;;;;;;;;5013213;28;20277;-89
2023/05/03 00:37:09;;;;;;;3.00;2.80;;;;;;;;;;5013317;28;20659;-89
2023/05/03 00:39:38;;;;;;;2.90;2.70;;;;;;;;;;5012959;28;20230;-89
2023/05/03 00:42:06;;;;;;;3.42;2.30;;;;;;;;;;5013538;28;20234;-88
2023/05/03 00:44:33;;;;;;;2.83;2.53;;;;;;;;;;5013395;28;20310;-89
2023/05/03 00:47:01;;;;;;;3.15;1.95;;;;;;;;;;5013443;28;20644;-89
2023/05/03 00:49:29;;;;;;;2.78;2.58;;;;;;;;;;5013525;28;20191;-89
2023/05/03 00:51:58;;;;;;;3.40;2.42;;;;;;;;;;5013758;28;20206;-89
2023/05/03 00:54:28;;;;;;;4.25;2.47;;;;;;;;;;5001191;28;20215;-89
2023/05/03 00:56:57;;;;;;;4.53;2.60;;;;;;;;;;4993487;28;20250;-89
2023/05/03 00:59:26;;;;;;;3.88;2.88;;;;;;;;;;4993398;28;20266;-89
2023/05/03 01:01:54;;;;;;;3.13;2.47;;;;;;;;;;4993768;28;20207;-89
2023/05/03 01:04:22;;;;;;;2.65;2.45;;;;;;;;;;4993720;28;20238;-89
2023/05/03 01:07:02;;;;;;;2.63;2.25;;;;;;;;;;4993796;28;20701;-89
2023/05/03 01:09:38;;;;;;;3.35;2.15;;;;;;;;;;4993217;28;20258;-89
2023/05/03 01:12:20;;;;;;;2.35;2.05;;;;;;;;;;4993758;28;20279;-89
2023/05/03 01:14:59;;;;;;;1.85;1.75;;;;;;;;;;4993436;28;20254;-89
2023/05/03 01:17:30;;;;;;;2.30;2.10;;;;;;;;;;5005409;28;20269;-89
2023/05/03 01:20:04;;;;;;;2.60;2.40;;;;;;;;;;5013281;28;20274;-89
2023/05/03 01:22:39;;;;;;;2.58;2.35;;;;;;;;;;5012593;28;20289;-89
2023/05/03 01:25:10;;;;;;;3.75;3.45;;;;;;;;;;5012627;28;20261;-89
2023/05/03 01:27:39;;;;;;;2.65;2.42;;;;;;;;;;5013103;28;20286;-89
2023/05/03 01:30:09;;;;;;;2.60;2.40;;;;;;;;;;5012864;28;20245;-89
2023/05/03 01:32:49;;;;;;;2.63;2.42;;;;;;;;;;5012705;28;20289;-89
2023/05/03 01:35:23;;;;;;;3.35;2.85;;;;;;;;;;5013237;28;20227;-89
2023/05/03 01:37:52;;;;;;;4.15;2.92;;;;;;;;;;5012946;28;20273;-89
2023/05/03 01:40:22;;;;;;;5.65;2.80;;;;;;;;;;5012550;28;20250;-88
2023/05/03 01:42:50;;;;;;;2.53;2.33;;;;;;;;;;5012538;28;20207;-89
2023/05/03 01:45:19;;;;;;;4.28;2.88;;;;;;;;;;5012416;28;20255;-89
2023/05/03 01:47:46;;;;;;;3.13;2.35;;;;;;;;;;5012415;28;20282;-89
2023/05/03 01:50:14;;;;;;;4.47;2.63;;;;;;;;;;5012839;28;20297;-88
2023/05/03 01:52:41;;;;;;;3.72;2.55;;;;;;;;;;5012468;28;20238;-89
2023/05/03 01:55:09;;;;;;;4.50;2.67;;;;;;;;;;5012297;28;20246;-89
2023/05/03 01:57:38;;;;;;;5.25;2.90;;;;;;;;;;5012512;28;20318;-89
2023/05/03 02:00:08;;;;;;;3.15;2.85;;;;;;;;;;5012698;28;20633;-89
2023/05/03 02:02:36;;;;;;;3.03;2.33;;;;;;;;;;5013390;28;20249;-89
2023/05/03 02:05:04;;;;;;;3.78;2.83;;;;;;;;;;5015979;28;20588;-89
2023/05/03 02:07:31;;;;;;;4.53;3.35;;;;;;;;;;5015987;28;20235;-89
2023/05/03 02:09:59;;;;;;;4.78;2.80;;;;;;;;;;5015842;28;20274;-89
2023/05/03 02:12:26;;;;;;;4.60;2.78;;;;;;;;;;5016149;28;20290;-89
2023/05/03 02:14:55;;;;;;;3.00;2.70;;;;;;;;;;5016112;28;20313;-89
2023/05/03 02:17:25;;;;;;;3.30;2.75;;;;;;;;;;5015778;28;20269;-89
2023/05/03 02:19:52;;;;;;;4.65;2.83;;;;;;;;;;5015544;28;20207;-89
2023/05/03 02:22:20;;;;;;;2.88;2.67;;;;;;;;;;5015726;28;20286;-89
2023/05/03 02:24:48;;;;;;;3.97;2.95;;;;;;;;;;5015423;28;20218;-89
2023/05/03 02:27:16;;;;;;;3.70;3.08;;;;;;;;;;5015817;28;20621;-89
2023/05/03 02:29:43;;;;;;;3.38;3.08;;;;;;;;;;5015820;28;20635;-89
2023/05/03 02:32:12;;;;;;;5.25;2.88;;;;;;;;;;5015519;28;20289;-89
2023/05/03 02:34:40;;;;;;;3.35;2.97;;;;;;;;;;5015388;28;20682;-89
2023/05/03 02:37:07;;;;;;;2.80;2.47;;;;;;;;;;5015785;28;20571;-90
2023/05/03 02:39:35;;;;;;;3.35;3.05;;;;;;;;;;5015434;28;20309;-89
2023/05/03 02:42:02;;;;;;;3.15;2.90;;;;;;;;;;5015540;28;20195;-88
2023/05/03 02:44:30;;;;;;;3.97;3.15;;;;;;;;;;5015508;28;20305;-89
2023/05/03 02:46:57;;;;;;;4.93;3.47;;;;;;;;;;5015395;28;20203;-90
2023/05/03 02:49:26;;;;;;;3.42;2.72;;;;;;;;;;5014965;28;20237;-88
2023/05/03 02:51:55;;;;;;;8.48;3.75;;;;;;;;;;5015076;28;20632;-89
2023/05/03 02:54:23;;;;;;;5.18;3.22;;;;;;;;;;5015435;28;20561;-89
2023/05/03 02:56:50;;;;;;;3.58;2.80;;;;;;;;;;5015358;28;20273;-89
2023/05/03 02:59:18;;;;;;;4.38;2.70;;;;;;;;;;5014935;28;20310;-89
2023/05/03 03:01:46;;;;;;;2.92;2.47;;;;;;;;;;5015205;28;20234;-89
2023/05/03 03:04:14;;;;;;;3.63;2.83;;;;;;;;;;5015049;28;20203;-88
2023/05/03 03:06:43;;;;;;;3.50;2.50;;;;;;;;;;5015653;28;20645;-89
2023/05/03 03:09:11;;;;;;;4.18;2.63;;;;;;;;;;5014742;28;20290;-89
2023/05/03 03:11:38;;;;;;;3.50;3.10;;;;;;;;;;5014968;28;20207;-89
2023/05/03 03:14:06;;;;;;;4.70;2.85;;;;;;;;;;5014113;28;20298;-89
2023/05/03 03:16:34;;;;;;;3.35;2.28;;;;;;;;;;5014377;28;20314;-89
2023/05/03 03:19:01;;;;;;;3.00;2.75;;;;;;;;;;5014844;28;20218;-89
2023/05/03 03:21:29;;;;;;;2.78;2.15;;;;;;;;;;5014808;28;20290;-89
2023/05/03 03:23:57;;;;;;;5.13;2.40;;;;;;;;;;5006793;28;20200;-89
2023/05/03 03:26:25;;;;;;;3.20;2.90;;;;;;;;;;4994826;28;20302;-90
2023/05/03 03:28:53;;;;;;;6.22;3.28;;;;;;;;;;4995022;28;20528;-90
2023/05/03 03:31:21;;;;;;;5.18;3.17;;;;;;;;;;4995266;28;20291;-89
2023/05/03 03:33:49;;;;;;;2.47;2.17;;;;;;;;;;4994864;28;20254;-89
2023/05/03 03:36:17;;;;;;;3.45;2.55;;;;;;;;;;4994669;28;20263;-89
2023/05/03 03:38:44;;;;;;;2.53;2.25;;;;;;;;;;4994829;28;20311;-89
2023/05/03 03:41:13;;;;;;;2.33;2.03;;;;;;;;;;4995125;28;20208;-88
2023/05/03 03:43:40;;;;;;;4.55;2.90;;;;;;;;;;4994836;28;20286;-89
2023/05/03 03:46:08;;;;;;;8.57;2.53;;;;;;;;;;4995680;28;20254;-89
2023/05/03 03:48:35;;;;;;;2.58;2.38;;;;;;;;;;5014102;28;20297;-89
2023/05/03 03:51:03;;;;;;;4.88;2.20;;;;;;;;;;5014096;28;20290;-89
2023/05/03 03:53:30;;;;;;;4.63;2.40;;;;;;;;;;5014163;28;20294;-89
2023/05/03 03:55:58;;;;;;;6.88;2.10;;;;;;;;;;5013991;28;20258;-89
2023/05/03 03:58:27;;;;;;;4.03;1.80;;;;;;;;;;5013975;28;20740;-88
2023/05/03 04:00:54;;;;;;;5.45;3.63;;;;;;;;;;5014491;28;20286;-89
2023/05/03 04:03:22;;;;;;;2.28;2.03;;;;;;;;;;5013966;28;20227;-89
2023/05/03 04:05:51;;;;;;;2.58;2.15;;;;;;;;;;5013635;28;20696;-89
2023/05/03 04:08:18;;;;;;;3.35;1.85;;;;;;;;;;5013716;28;20281;-89
2023/05/03 04:10:46;;;;;;;2.20;2.00;;;;;;;;;;5013908;28;20202;-89
2023/05/03 04:13:13;;;;;;;2.65;2.22;;;;;;;;;;5013636;28;20285;-89
2023/05/03 04:15:42;;;;;;;2.35;1.92;;;;;;;;;;5013939;28;20255;-89
2023/05/03 04:18:10;;;;;;;2.10;1.90;;;;;;;;;;5013965;28;20291;-89
2023/05/03 04:20:37;;;;;;;4.03;2.08;;;;;;;;;;5013855;28;20227;-89
2023/05/03 04:23:05;;;;;;;1.60;1.50;;;;;;;;;;5014069;28;20298;-89
2023/05/03 04:25:33;;;;;;;3.08;1.80;;;;;;;;;;5012974;28;20656;-90
2023/05/03 04:28:00;;;;;;;1.85;1.75;;;;;;;;;;5013671;28;20572;-89
2023/05/03 04:30:28;;;;;;;3.13;2.20;;;;;;;;;;5013717;28;20222;-89
2023/05/03 04:32:57;;;;;;;4.10;1.77;;;;;;;;;;5013677;28;20205;-89
2023/05/03 04:35:25;;;;;;;2.47;1.80;;;;;;;;;;5013657;28;20692;-89
2023/05/03 04:37:52;;;;;;;1.90;1.63;;;;;;;;;;5013741;28;20283;-89
2023/05/03 04:40:20;;;;;;;2.22;2.03;;;;;;;;;;5013177;28;20314;-90
2023/05/03 04:42:47;;;;;;;2.17;1.85;;;;;;;;;;5013611;28;20289;-90
2023/05/03 04:45:15;;;;;;;2.55;2.33;;;;;;;;;;5013250;28;20754;-89
2023/05/03 04:47:42;;;;;;;1.85;1.75;;;;;;;;;;5013156;28;20198;-89
2023/05/03 04:50:12;;;;;;;2.22;1.80;;;;;;;;;;5018941;28;20290;-89
2023/05/03 04:52:40;;;;;;;1.67;1.50;;;;;;;;;;5013737;28;20202;-89
2023/05/03 04:55:08;;;;;;;2.65;1.98;;;;;;;;;;5013208;28;20306;-90
2023/05/03 04:57:36;;;;;;;3.70;1.92;;;;;;;;;;5012814;28;20234;-89
2023/05/03 05:00:08;;;;;;;1.90;1.80;;;;;;;;;;5013092;28;20207;-89
2023/05/03 05:02:37;;;;;;;1.98;1.65;;;;;;;;;;5013354;28;20563;-89
2023/05/03 05:05:05;;;;;;;1.70;1.60;;;;;;;;;;5013164;28;20305;-89
2023/05/03 05:07:34;;;;;;;1.63;1.52;;;;;;;;;;5012948;28;20576;-89
2023/05/03 05:10:01;;;;;;;2.15;1.58;;;;;;;;;;5012840;28;20206;-90
2023/05/03 05:12:29;;;;;;;1.83;1.55;;;;;;;;;;5013161;28;20670;-89
2023/05/03 05:14:56;;;;;;;2.08;1.98;;;;;;;;;;5013137;28;20742;-89
2023/05/03 05:17:25;;;;;;;4.57;2.40;;;;;;;;;;5012733;28;20226;-90
2023/05/03 05:19:53;;;;;;;2.25;1.83;;;;;;;;;;5012748;28;20215;-90
2023/05/03 05:22:20;;;;;;;3.10;2.55;;;;;;;;;;5012625;28;20190;-88
2023/05/03 05:24:49;;;;;;;2.88;2.38;;;;;;;;;;5012273;28;20227;-90
2023/05/03 05:27:17;;;;;;;2.25;2.00;;;;;;;;;;5012546;28;20253;-89
2023/05/03 05:29:44;;;;;;;2.15;2.00;;;;;;;;;;5012329;28;20234;-89
2023/05/03 05:32:12;;;;;;;2.05;1.90;;;;;;;;;;5012717;28;20253;-89
2023/05/03 05:34:40;;;;;;;3.33;2.25;;;;;;;;;;5012731;28;20250;-90
2023/05/03 05:37:07;;;;;;;2.40;2.20;;;;;;;;;;5012378;28;20298;-90
2023/05/03 05:39:35;;;;;;;2.10;1.60;;;;;;;;;;5016235;28;20195;-89
2023/05/03 05:42:04;;;;;;;2.67;2.13;;;;;;;;;;5017206;28;20286;-90
2023/05/03 05:44:31;;;;;;;3.60;3.08;;;;;;;;;;5016778;28;20251;-90
2023/05/03 05:46:59;;;;;;;6.00;2.65;;;;;;;;;;5016899;28;20712;-90
2023/05/03 05:49:27;;;;;;;6.97;2.65;;;;;;;;;;5016164;28;20203;-90
2023/05/03 05:51:56;;;;;;;2.45;2.25;;;;;;;;;;5016112;28;20753;-88
2023/05/03 05:54:24;;;;;;;2.35;2.15;;;;;;;;;;5016881;28;20230;-87
2023/05/03 05:56:52;;;;;;;4.80;2.40;;;;;;;;;;5016367;28;20226;-87
2023/05/03 05:59:21;;;;;;;2.03;1.90;;;;;;;;;;5016388;28;20282;-87
2023/05/03 06:01:48;;;;;;;4.90;2.40;;;;;;;;;;5016017;28;20314;-87
2023/05/03 06:04:16;;;;;;;3.45;2.70;;;;;;;;;;5016358;28;20238;-86
2023/05/03 06:06:44;;;;;;;6.93;2.10;;;;;;;;;;5016770;28;20672;-86
2023/05/03 06:09:11;;;;;;;2.47;2.28;;;;;;;;;;5016256;28;20290;-86
2023/05/03 06:11:42;;;;;;;2.88;2.08;;;;;;;;;;5016365;28;20625;-86
2023/05/03 06:14:10;;;;;;;2.47;1.90;;;;;;;;;;5016812;28;20199;-87
2023/05/03 06:16:39;;;;;;;2.05;1.80;;;;;;;;;;5016033;28;20223;-87
2023/05/03 06:19:06;;;;;;;2.45;2.25;;;;;;;;;;5016291;28;20286;-87
2023/05/03 06:21:34;;;;;;;5.15;2.67;;;;;;;;;;5016186;28;20281;-87
2023/05/03 06:24:02;;;;;;;2.28;2.10;;;;;;;;;;5015619;28;20231;-89
2023/05/03 06:26:30;;;;;;;2.25;1.95;;;;;;;;;;5015996;28;20265;-88
2023/05/03 06:28:59;;;;;;;2.70;2.10;;;;;;;;;;5015522;28;20238;-88
2023/05/03 06:31:27;;;;;;;1.60;1.50;;;;;;;;;;5015361;28;20289;-89
2023/05/03 06:33:56;;;;;;;2.38;1.65;;;;;;;;;;5015794;28;20233;-88
2023/05/03 06:36:23;;;;;;;2.78;2.33;;;;;;;;;;5015657;28;20307;-89
2023/05/03 06:38:51;;;;;;;2.05;1.77;;;;;;;;;;5015560;28;20645;-89
2023/05/03 06:41:19;;;;;;;2.78;2.58;;;;;;;;;;5016187;28;20223;-89
2023/05/03 06:43:46;;;;;;;2.33;2.13;;;;;;;;;;5015804;28;20675;-89
2023/05/03 06:46:14;;;;;;;4.00;2.30;;;;;;;;;;5015530;28;20649;-88
2023/05/03 06:48:41;;;;;;;2.75;2.10;;;;;;;;;;5015652;28;20297;-88
2023/05/03 06:51:10;;;;;;;2.20;2.00;;;;;;;;;;5015459;28;20298;-89
2023/05/03 06:53:38;;;;;;;5.75;2.38;;;;;;;;;;5015552;28;20289;-88
2023/05/03 06:56:06;;;;;;;4.10;2.63;;;;;;;;;;5015081;28;20222;-88
2023/05/03 06:58:34;;;;;;;2.08;1.88;;;;;;;;;;5014880;28;20245;-89
2023/05/03 07:01:03;;;;;;;3.85;2.00;;;;;;;;;;5014989;28;20219;-89
2023/05/03 07:03:30;;;;;;;3.28;2.22;;;;;;;;;;5015209;28;20206;-89
2023/05/03 07:05:58;;;;;;;2.72;2.33;;;;;;;;;;5014736;28;20242;-88
2023/05/03 07:08:28;;;;;;;2.92;2.35;;;;;;;;;;5015098;28;20203;-89
2023/05/03 07:10:55;;;;;;;1.77;1.67;;;;;;;;;;5014929;28;20656;-89
2023/05/03 07:13:23;;;;;;;1.90;1.80;;;;;;;;;;5014940;28;20291;-88
2023/05/03 07:15:51;;;;;;;3.85;1.88;;;;;;;;;;5014961;28;20254;-89
2023/05/03 07:18:18;;;;;;;2.10;1.90;;;;;;;;;;5014585;28;20234;-89
2023/05/03 07:23:39;;;;;;;3.10;2.03;;;;;;;;;;5013674;28;20310;-88
2023/05/03 07:26:07;;;;;;;2.50;1.90;;;;;;;;;;5014519;28;20313;-88
2023/05/03 07:28:34;;;;;;;13.68;3.47;;;;;;;;;;5014639;28;20656;-88
2023/05/03 07:31:03;;;;;;;3.30;2.08;;;;;;;;;;5014467;28;20210;-88
2023/05/03 07:33:31;;;;;;;2.90;2.70;;;;;;;;;;5014517;28;20249;-88
2023/05/03 07:35:58;;;;;;;6.65;1.90;;;;;;;;;;5014434;28;20277;-88
2023/05/03 07:38:26;;;;;;;2.25;2.05;;;;;;;;;;5013927;28;20289;-89
2023/05/03 07:40:55;;;;;;;4.57;1.85;;;;;;;;;;5013904;28;20241;-88
2023/05/03 07:43:23;;;;;;;2.25;1.90;;;;;;;;;;5014177;28;20285;-88
2023/05/03 07:45:51;;;;;;;2.00;1.88;;;;;;;;;;5014444;28;20227;-88
2023/05/03 07:48:18;;;;;;;2.03;1.67;;;;;;;;;;5014452;28;20201;-89
2023/05/03 07:50:46;;;;;;;1.10;1.00;;;;;;;;;;5014402;28;20718;-89
2023/05/03 07:53:13;;;;;;;2.72;1.58;;;;;;;;;;5014310;28;20289;-89
2023/05/03 07:55:41;;;;;;;2.55;2.35;;;;;;;;;;5014497;28;20250;-89
2023/05/03 07:58:10;;;;;;;2.70;1.90;;;;;;;;;;5013764;28;20294;-89
2023/05/03 08:00:37;;;;;;;3.85;1.80;;;;;;;;;;5013419;28;20238;-89
2023/05/03 08:03:05;;;;;;;2.10;1.70;;;;;;;;;;5013951;28;20314;-88
2023/05/03 08:05:34;;;;;;;2.83;1.80;;;;;;;;;;5013351;28;20250;-89
2023/05/03 08:08:04;;;;;;;1.77;1.63;;;;;;;;;;5014008;28;20660;-89
2023/05/03 08:10:36;;;;;;;1.83;1.73;;;;;;;;;;5013794;28;20202;-89
2023/05/03 08:13:04;;;;;;;1.50;1.40;;;;;;;;;;5013913;28;20226;-88
2023/05/03 08:15:33;;;;;;;1.40;1.30;;;;;;;;;;5013994;28;20639;-88
2023/05/03 08:18:00;;;;;;;1.60;1.50;;;;;;;;;;5013578;28;20286;-89
2023/05/03 08:20:29;;;;;;;1.98;1.55;;;;;;;;;;5013556;28;20254;-89
2023/05/03 08:22:58;;;;;;;0.95;0.95;;;;;;;;;;5013535;28;20226;-89
2023/05/03 08:25:27;;;;;;;1.95;1.60;;;;;;;;;;5013685;28;20233;-88
2023/05/03 08:27:54;;;;;;;3.30;1.67;;;;;;;;;;5013654;28;20267;-88
2023/05/03 08:30:22;;;;;;;1.33;1.23;;;;;;;;;;5013354;28;20214;-88
2023/05/03 08:32:51;;;;;;;1.50;1.40;;;;;;;;;;5013538;28;20194;-88
2023/05/03 08:35:19;;;;;;;2.20;1.60;;;;;;;;;;5013671;28;20223;-89
2023/05/03 08:37:46;;;;;;;1.90;1.20;;;;;;;;;;5013475;28;20286;-89
2023/05/03 08:40:14;;;;;;;1.30;1.20;;;;;;;;;;5013682;28;20213;-89
2023/05/03 08:42:44;;;;;;;1.40;1.30;;;;;;;;;;5013376;28;20230;-89
2023/05/03 08:45:14;;;;;;;1.95;1.80;;;;;;;;;;5013131;28;20735;-90
2023/05/03 08:47:43;;;;;;;1.70;1.60;;;;;;;;;;5016190;28;20225;-87
2023/05/03 08:50:14;;;;;;;1.58;1.48;;;;;;;;;;5013789;28;20591;-86
2023/05/03 08:52:43;;;;;;;2.28;1.50;;;;;;;;;;5014665;28;20289;-87
2023/05/03 08:55:11;;;;;;;2.63;1.73;;;;;;;;;;5013927;28;20226;-87
2023/05/03 08:57:39;;;;;;;1.70;1.52;;;;;;;;;;5013889;28;20221;-87
2023/05/03 09:00:11;;;;;;;1.83;1.60;;;;;;;;;;5015341;28;20213;-86
2023/05/03 09:02:39;;;;;;;1.90;1.58;;;;;;;;;;5015315;28;20317;-87
2023/05/03 09:05:24;;;;;;;1.40;1.30;;;;;;;;;;5014265;28;20251;-86
2023/05/03 09:08:03;;;;;;;1.05;1.05;;;;;;;;;;5014786;28;20213;-86
2023/05/03 09:10:31;;;;;;;1.33;1.20;;;;;;;;;;5014003;28;20214;-86
2023/05/03 09:12:59;;;;;;;1.90;1.80;;;;;;;;;;5015926;28;20330;-85
2023/05/03 09:15:28;;;;;;;2.00;1.50;;;;;;;;;;5019245;28;20219;-86
2023/05/03 09:18:17;;;;;;;1.85;1.65;;;;;;;;;;5018771;28;20563;-86
2023/05/03 09:20:50;;;;;;;4.10;1.63;;;;;;;;;;5014500;28;20724;-87
2023/05/03 09:23:29;;;;;;;1.63;1.48;;;;;;;;;;5015416;28;20215;-87
2023/05/03 09:25:57;;;;;;;3.10;2.80;;;;;;;;;;4999466;28;20251;-86
2023/05/03 09:28:26;;;;;;;2.28;1.92;;;;;;;;;;4999027;28;20204;-87
2023/05/03 09:31:08;;;;;;;2.50;2.03;;;;;;;;;;4998948;28;20231;-86
2023/05/03 09:33:35;;;;;;;2.30;2.10;;;;;;;;;;4999468;28;20184;-86
2023/05/03 09:36:05;;;;;;;1.73;1.35;;;;;;;;;;4999579;28;20251;-86
2023/05/03 09:38:36;;;;;;;1.23;1.13;;;;;;;;;;5001143;28;20214;-86
2023/05/03 09:41:05;;;;;;;2.70;1.60;;;;;;;;;;5001276;28;20280;-86
2023/05/03 09:43:33;;;;;;;2.78;1.50;;;;;;;;;;4999292;28;20227;-86
2023/05/03 09:46:10;;;;;;;1.42;1.33;;;;;;;;;;4997545;28;20307;-86
2023/05/03 09:48:38;;;;;;;2.42;1.42;;;;;;;;;;4998054;28;20219;-86
2023/05/03 09:51:06;;;;;;;2.85;2.28;;;;;;;;;;4998048;28;20234;-87
2023/05/03 09:53:37;;;;;;;2.60;1.85;;;;;;;;;;4997126;28;20192;-87
2023/05/03 09:56:07;;;;;;;1.70;1.60;;;;;;;;;;4997209;28;20251;-86
2023/05/03 09:58:36;;;;;;;2.28;1.60;;;;;;;;;;4996361;28;20254;-86
2023/05/03 10:01:03;;;;;;;1.90;1.05;;;;;;;;;;4997594;28;20211;-87
2023/05/03 10:03:38;;;;;;;1.50;1.40;;;;;;;;;;4996819;28;20748;-87
2023/05/03 10:06:11;;;;;;;2.35;1.63;;;;;;;;;;4997443;28;20661;-88
2023/05/03 10:08:42;;;;;;;1.33;1.20;;;;;;;;;;4997415;28;20234;-85
2023/05/03 10:11:10;;;;;;;1.30;1.20;;;;;;;;;;4997443;28;20608;-85
2023/05/03 10:13:37;;;;;;;1.30;1.20;;;;;;;;;;4997407;28;20204;-84
2023/05/03 10:16:09;;;;;;;2.28;1.50;;;;;;;;;;4997275;28;20306;-85
2023/05/03 10:18:43;;;;;;;1.60;1.10;;;;;;;;;;4997801;28;20199;-84
2023/05/03 10:21:14;;;;;;;1.33;1.23;;;;;;;;;;4997055;28;20645;-86
2023/05/03 10:24:15;;;;;;;2.50;1.40;;;;;;;;;;5002465;28;20231;-84
2023/05/03 10:26:43;;;;;;;1.58;1.38;;;;;;;;;;5017224;28;20278;-84
2023/05/03 10:29:53;;;;;;;1.13;1.02;;;;;;;;;;5016998;28;20231;-84
2023/05/03 10:32:38;;;;;;;2.42;0.98;;;;;;;;;;5017237;28;20203;-84
2023/05/03 10:35:09;;;;;;;1.70;1.60;;;;;;;;;;5018349;28;20305;-83
2023/05/03 10:37:38;;;;;;;1.40;1.30;;;;;;;;;;5018501;28;20183;-84
2023/05/03 10:40:15;;;;;;;2.03;1.92;;;;;;;;;;5017377;28;20199;-84
2023/05/03 10:42:46;;;;;;;1.60;1.48;;;;;;;;;;5016964;28;20183;-84
2023/05/03 10:45:27;;;;;;;1.90;1.40;;;;;;;;;;5016854;28;20222;-86
2023/05/03 10:48:27;;;;;;;1.25;1.15;;;;;;;;;;5016964;28;20219;-84
2023/05/03 10:50:56;;;;;;;1.60;1.50;;;;;;;;;;4955347;29;20671;-85
2023/05/03 10:53:38;;;;;;;2.40;1.45;;;;;;;;;;4955125;29;20208;-84
2023/05/03 10:56:09;;;;;;;2.90;1.25;;;;;;;;;;4988949;28;20707;-84
2023/05/03 10:58:41;;;;;;;3.65;1.80;;;;;;;;;;5016754;28;20210;-85
2023/05/03 11:01:10;;;;;;;2.30;1.65;;;;;;;;;;5016250;28;20185;-85
2023/05/03 11:03:46;;;;;;;1.60;1.50;;;;;;;;;;5017528;28;20277;-86
2023/05/03 11:06:32;;;;;;;1.75;1.65;;;;;;;;;;5016997;28;20250;-85
2023/05/03 11:09:01;;;;;;;1.77;1.20;;;;;;;;;;5016590;28;20202;-85
2023/05/03 11:11:30;;;;;;;1.70;1.40;;;;;;;;;;5017639;28;20187;-85
2023/05/03 11:13:58;;;;;;;2.55;1.30;;;;;;;;;;5016425;28;20640;-85
2023/05/03 11:16:30;;;;;;;3.13;1.20;;;;;;;;;;5016402;28;20688;-85
2023/05/03 11:18:58;;;;;;;1.20;1.10;;;;;;;;;;5016189;28;20258;-84
2023/05/03 11:21:26;;;;;;;2.63;1.60;;;;;;;;;;5016984;28;20235;-84
2023/05/03 11:23:55;;;;;;;3.08;1.98;;;;;;;;;;5016578;28;20222;-85
2023/05/03 11:26:24;;;;;;;1.70;1.23;;;;;;;;;;5016699;28;20667;-84
2023/05/03 11:28:54;;;;;;;2.42;1.20;;;;;;;;;;5015959;28;20570;-84
2023/05/03 11:31:22;;;;;;;1.55;1.35;;;;;;;;;;5015424;28;20310;-86
2023/05/03 11:33:50;;;;;;;1.50;1.40;;;;;;;;;;5016417;28;20290;-85
2023/05/03 11:36:18;;;;;;;1.30;1.17;;;;;;;;;;5016234;28;20226;-85
2023/05/03 11:38:46;;;;;;;1.58;1.48;;;;;;;;;;5017377;28;20209;-85
2023/05/03 11:41:15;;;;;;;2.08;1.70;;;;;;;;;;5015046;28;20286;-85
2023/05/03 11:43:47;;;;;;;2.88;1.65;;;;;;;;;;5015267;28;20223;-84
2023/05/03 11:46:20;;;;;;;4.65;1.67;;;;;;;;;;5014691;28;20253;-86
2023/05/03 11:48:48;;;;;;;1.50;1.30;;;;;;;;;;5015000;28;20187;-84
2023/05/03 11:51:18;;;;;;;1.35;1.20;;;;;;;;;;5014326;28;20234;-85
2023/05/03 11:53:47;;;;;;;1.30;1.20;;;;;;;;;;5014466;28;20206;-84
2023/05/03 11:56:17;;;;;;;1.20;1.10;;;;;;;;;;5014960;28;20754;-85
2023/05/03 11:58:55;;;;;;;1.67;1.27;;;;;;;;;;5014266;28;20402;-85
2023/05/03 12:01:26;;;;;;;1.55;1.45;;;;;;;;;;5015015;28;20537;-86
2023/05/03 12:03:55;;;;;;;1.52;1.38;;;;;;;;;;5014350;28;20655;-86
2023/05/03 12:06:24;;;;;;;2.17;1.70;;;;;;;;;;5015050;28;20227;-86
2023/05/03 12:08:52;;;;;;;1.52;1.20;;;;;;;;;;5014249;28;20246;-85
2023/05/03 12:11:22;;;;;;;1.40;1.10;;;;;;;;;;5015373;28;20684;-85
2023/05/03 12:13:58;;;;;;;1.52;1.10;;;;;;;;;;5014324;28;20281;-85
2023/05/03 12:16:27;;;;;;;1.70;1.60;;;;;;;;;;5014937;28;20227;-85
2023/05/03 12:19:01;;;;;;;1.75;1.20;;;;;;;;;;5014301;28;20261;-85
2023/05/03 12:21:47;;;;;;;1.70;1.60;;;;;;;;;;5014174;28;20644;-85
2023/05/03 12:24:17;;;;;;;1.92;1.48;;;;;;;;;;5015003;28;20218;-86
2023/05/03 12:26:45;;;;;;;1.85;1.75;;;;;;;;;;5015362;28;20656;-85
2023/05/03 12:29:13;;;;;;;2.58;1.73;;;;;;;;;;5015107;28;20211;-85
2023/05/03 12:31:42;;;;;;;1.63;1.52;;;;;;;;;;5014441;28;20235;-84
2023/05/03 12:34:10;;;;;;;4.18;1.48;;;;;;;;;;5014287;28;20707;-84
2023/05/03 12:36:40;;;;;;;3.03;1.92;;;;;;;;;;5013834;28;20206;-85
2023/05/03 12:39:10;;;;;;;3.28;2.42;;;;;;;;;;5013856;28;20187;-85
2023/05/03 12:41:38;;;;;;;1.52;1.42;;;;;;;;;;5014500;28;20199;-85
2023/05/03 12:44:05;;;;;;;1.40;1.30;;;;;;;;;;5015199;28;20230;-85
2023/05/03 12:46:33;;;;;;;1.83;1.73;;;;;;;;;;5015993;28;20215;-86
2023/05/03 12:49:02;;;;;;;1.67;1.58;;;;;;;;;;5017442;28;20248;-85
2023/05/03 12:51:30;;;;;;;1.98;1.30;;;;;;;;;;5016884;28;20663;-85
2023/05/03 12:53:57;;;;;;;1.52;1.42;;;;;;;;;;5016032;28;20198;-85
2023/05/03 12:56:25;;;;;;;2.33;1.20;;;;;;;;;;5014371;28;20770;-87
2023/05/03 12:58:55;;;;;;;3.38;1.70;;;;;;;;;;5013764;28;20699;-85
2023/05/03 13:01:24;;;;;;;2.45;2.25;;;;;;;;;;5013230;28;20249;-88
2023/05/03 13:03:52;;;;;;;1.40;1.30;;;;;;;;;;5014002;28;20222;-86
2023/05/03 13:06:21;;;;;;;2.42;2.10;;;;;;;;;;5014360;28;20756;-86
2023/05/03 13:08:49;;;;;;;1.88;1.77;;;;;;;;;;5013375;28;20210;-86
2023/05/03 13:11:20;;;;;;;1.58;1.35;;;;;;;;;;5013248;28;20282;-86
2023/05/03 13:13:47;;;;;;;1.77;1.65;;;;;;;;;;5013363;28;20261;-86
2023/05/03 13:16:15;;;;;;;1.52;1.40;;;;;;;;;;5013279;28;20747;-85
2023/05/03 13:18:43;;;;;;;1.00;1.00;;;;;;;;;;5015490;28;20261;-85
2023/05/03 13:21:12;;;;;;;2.95;1.30;;;;;;;;;;5015537;28;20198;-85
2023/05/03 13:23:40;;;;;;;1.20;1.10;;;;;;;;;;5016116;28;20592;-85
2023/05/03 13:26:08;;;;;;;1.35;1.23;;;;;;;;;;5013587;28;20257;-86
2023/05/03 13:28:35;;;;;;;1.90;1.45;;;;;;;;;;5013212;28;20647;-84
2023/05/03 13:31:03;;;;;;;1.15;1.15;;;;;;;;;;5013729;28;20203;-86
2023/05/03 13:33:30;;;;;;;1.55;1.45;;;;;;;;;;5012986;28;20282;-85
2023/05/03 13:35:58;;;;;;;1.30;1.30;;;;;;;;;;5016205;28;20219;-85
2023/05/03 13:38:25;;;;;;;2.78;1.80;;;;;;;;;;5016084;28;20203;-84
2023/05/03 13:40:54;;;;;;;2.17;1.98;;;;;;;;;;5016853;28;20246;-83
2023/05/03 13:43:22;;;;;;;3.03;2.08;;;;;;;;;;5018098;28;20199;-83
2023/05/03 13:45:51;;;;;;;4.93;1.88;;;;;;;;;;5017719;28;20222;-84
2023/05/03 13:48:18;;;;;;;1.40;1.30;;;;;;;;;;5018006;28;20238;-83
2023/05/03 13:50:46;;;;;;;2.30;1.70;;;;;;;;;;5018399;28;20245;-83
2023/05/03 13:53:14;;;;;;;2.17;1.80;;;;;;;;;;5018159;28;20199;-84
2023/05/03 13:55:44;;;;;;;3.78;1.80;;;;;;;;;;5017038;28;20215;-83
2023/05/03 13:58:13;;;;;;;2.88;1.73;;;;;;;;;;5018025;28;20203;-83
2023/05/03 14:00:40;;;;;;;1.50;1.40;;;;;;;;;;5020488;28;20222;-83
2023/05/03 14:03:08;;;;;;;1.83;1.38;;;;;;;;;;5019566;28;20265;-84
2023/05/03 14:05:36;;;;;;;2.50;2.03;;;;;;;;;;5019020;28;20234;-84
2023/05/03 14:08:04;;;;;;;5.00;1.77;;;;;;;;;;5019315;28;20255;-84
2023/05/03 14:10:35;;;;;;;2.15;1.90;;;;;;;;;;5020313;28;20199;-84
2023/05/03 14:13:02;;;;;;;1.83;1.73;;;;;;;;;;5019951;28;20191;-84
2023/05/03 14:15:31;;;;;;;1.20;1.10;;;;;;;;;;5019769;28;20314;-86
2023/05/03 14:17:59;;;;;;;3.45;1.92;;;;;;;;;;5021743;28;20229;-84
2023/05/03 14:20:26;;;;;;;3.15;1.70;;;;;;;;;;5020486;28;20207;-84
2023/05/03 14:22:54;;;;;;;1.77;1.50;;;;;;;;;;5019420;28;20680;-85
2023/05/03 14:25:22;;;;;;;1.65;1.55;;;;;;;;;;5019669;28;20227;-85
2023/05/03 14:27:49;;;;;;;2.92;1.52;;;;;;;;;;5021361;28;20290;-84
2023/05/03 14:30:17;;;;;;;1.55;1.45;;;;;;;;;;5020532;28;20206;-83
2023/05/03 14:32:46;;;;;;;1.52;1.20;;;;;;;;;;5019158;28;20234;-84
2023/05/03 14:35:14;;;;;;;2.20;1.98;;;;;;;;;;5020425;28;20219;-84
2023/05/03 14:37:41;;;;;;;1.60;1.50;;;;;;;;;;5020799;28;20694;-84
2023/05/03 14:40:10;;;;;;;1.40;1.30;;;;;;;;;;5019774;28;20207;-85
2023/05/03 14:42:37;;;;;;;1.60;1.50;;;;;;;;;;5020519;28;20286;-84
2023/05/03 14:45:07;;;;;;;1.50;1.40;;;;;;;;;;5019637;28;20318;-83
2023/05/03 14:47:34;;;;;;;1.88;1.52;;;;;;;;;;5019093;28;20207;-85
2023/05/03 14:50:03;;;;;;;1.35;1.25;;;;;;;;;;5018438;28;20637;-84
2023/05/03 14:52:31;;;;;;;1.13;1.10;;;;;;;;;;5018765;28;20203;-84
2023/05/03 14:54:58;;;;;;;1.95;1.23;;;;;;;;;;5019660;28;20279;-85
2023/05/03 14:57:26;;;;;;;1.10;1.10;;;;;;;;;;5021215;28;20293;-83